Time;durP1;ratioP1;P1;durP2;ratioP2;P2;SDS_P1;SDS_P2;PMS_P1;PMS_P2;Temp;Humidity;BMP_temperature;BMP_pressure;BME280_temperature;BME280_humidity;BME280_pressure;Samples;Min_cycle;Max_cycle;Signal;HPM_P1;HPM_P2
2022/11/16 00:00:00;;;;;;;;;;;;;;;;;;;;;
2022/11/16 00:02:26;;;;;;;87.22;2.50;;;;;;;5.10;100.00;91820.41;5094795;28;20092;-79
2022/11/16 00:04:51;;;;;;;321.60;6.82;;;;;;;5.08;100.00;91818.09;5070182;28;20033;-78
2022/11/16 00:07:17;;;;;;;224.82;6.22;;;;;;;5.07;100.00;91816.53;5105598;28;20088;-80
2022/11/16 00:09:43;;;;;;;182.43;4.50;;;;;;;5.10;100.00;91808.22;5106392;28;20096;-80
2022/11/16 00:12:11;;;;;;;69.85;4.28;;;;;;;5.18;100.00;91810.25;5097850;28;20096;-79
2022/11/16 00:14:37;;;;;;;198.20;5.57;;;;;;;5.17;100.00;91807.91;5086138;28;20097;-80
2022/11/16 00:17:03;;;;;;;79.07;3.78;;;;;;;5.15;100.00;91805.56;5080608;28;20032;-80
2022/11/16 00:19:29;;;;;;;49.78;2.75;;;;;;;5.16;100.00;91811.56;5084805;28;20019;-80
2022/11/16 00:21:54;;;;;;;62.20;2.60;;;;;;;5.24;100.00;91805.03;5088579;28;20033;-78
2022/11/16 00:24:22;;;;;;;82.45;3.10;;;;;;;5.20;100.00;91805.56;5104462;28;20028;-78
2022/11/16 00:26:48;;;;;;;32.67;2.25;;;;;;;5.19;100.00;91791.03;5103981;28;20050;-79
2022/11/16 00:29:17;;;;;;;37.88;2.65;;;;;;;5.19;100.00;91795.44;5105352;28;20032;-79
2022/11/16 00:31:44;;;;;;;11.73;2.20;;;;;;;5.20;100.00;91787.41;5105822;28;20036;-79
2022/11/16 00:34:09;;;;;;;11.90;2.35;;;;;;;5.21;100.00;91783.75;5087806;28;20036;-80
2022/11/16 00:36:35;;;;;;;48.45;2.47;;;;;;;5.22;100.00;91780.13;5093295;28;20054;-79
2022/11/16 00:39:01;;;;;;;22.75;2.28;;;;;;;5.24;100.00;91773.88;5102573;28;20474;-81
2022/11/16 00:41:26;;;;;;;32.92;2.53;;;;;;;5.30;100.00;91772.81;5087677;28;20068;-80
2022/11/16 00:43:52;;;;;;;18.27;2.22;;;;;;;5.26;100.00;91751.03;5086580;28;20459;-79
2022/11/16 00:46:18;;;;;;;16.73;2.40;;;;;;;5.20;100.00;91750.28;5105679;28;20032;-79
2022/11/16 00:48:43;;;;;;;5.95;1.90;;;;;;;5.20;100.00;91753.66;5106037;28;20035;-79
2022/11/16 00:51:09;;;;;;;4.38;2.10;;;;;;;5.27;100.00;91743.00;5088202;28;20040;-78
2022/11/16 00:53:35;;;;;;;3.55;1.80;;;;;;;5.24;100.00;91737.56;5104059;28;20393;-80
2022/11/16 00:56:00;;;;;;;3.72;1.90;;;;;;;5.18;100.00;91729.03;5086704;28;20020;-80
2022/11/16 00:58:29;;;;;;;3.28;1.70;;;;;;;5.21;100.00;91729.25;5104396;28;20107;-79
2022/11/16 01:01:05;;;;;;;4.05;2.17;;;;;;;5.19;100.00;91726.16;5089680;28;20036;-79
2022/11/16 01:03:30;;;;;;;3.70;1.90;;;;;;;5.19;100.00;91715.00;5085322;28;20072;-79
2022/11/16 01:06:01;;;;;;;2.92;1.80;;;;;;;5.18;100.00;91713.47;5068273;28;20049;-79
2022/11/16 01:08:27;;;;;;;2.95;1.80;;;;;;;5.24;100.00;91711.59;5100631;28;20032;-80
2022/11/16 01:10:53;;;;;;;4.55;2.58;;;;;;;5.35;100.00;91710.47;5088828;28;20081;-80
2022/11/16 01:13:18;;;;;;;4.00;2.15;;;;;;;5.43;100.00;91704.72;5105053;28;20024;-81
2022/11/16 01:15:47;;;;;;;3.33;1.80;;;;;;;5.34;100.00;91707.13;5085780;28;20040;-79
2022/11/16 01:18:13;;;;;;;4.70;2.00;;;;;;;5.31;100.00;91706.88;5085144;28;20090;-79
2022/11/16 01:20:39;;;;;;;6.60;2.75;;;;;;;5.29;100.00;91701.16;5101789;28;20275;-78
2022/11/16 01:23:05;;;;;;;26.85;11.82;;;;;;;5.30;100.00;91707.94;5086964;28;20088;-79
2022/11/16 01:25:31;;;;;;;10.07;4.18;;;;;;;5.35;100.00;91702.69;5103023;28;20529;-79
2022/11/16 01:27:57;;;;;;;4.38;1.80;;;;;;;5.32;100.00;91708.44;5053768;28;20063;-79
2022/11/16 01:30:32;;;;;;;1.80;1.30;;;;;;;5.32;100.00;91703.25;5089162;28;20028;-80
2022/11/16 01:33:02;;;;;;;1.60;1.20;;;;;;;5.30;100.00;91694.94;5105451;28;20040;-80
2022/11/16 01:35:27;;;;;;;5.50;2.20;;;;;;;5.28;100.00;91691.84;5099956;28;20059;-79
2022/11/16 01:37:53;;;;;;;4.00;2.08;;;;;;;5.26;100.00;91691.34;5105144;28;20032;-78
2022/11/16 01:40:18;;;;;;;3.38;1.92;;;;;;;5.27;100.00;91690.28;5106540;28;20103;-79
2022/11/16 01:42:44;;;;;;;2.13;1.30;;;;;;;5.28;100.00;91692.63;5107642;28;20043;-78
2022/11/16 01:45:42;;;;;;;1.98;1.20;;;;;;;5.29;100.00;91683.81;5071185;28;20040;-78
2022/11/16 01:48:15;;;;;;;1.30;1.10;;;;;;;5.29;100.00;91681.22;5083767;28;20056;-80
2022/11/16 01:50:42;;;;;;;1.40;1.10;;;;;;;5.33;100.00;91678.81;5084863;28;20084;-80
2022/11/16 01:53:10;;;;;;;3.90;1.48;;;;;;;5.32;100.00;91672.09;5069304;28;20029;-78
2022/11/16 01:55:48;;;;;;;1.58;1.20;;;;;;;5.32;100.00;91669.50;5086155;28;20508;-79
2022/11/16 01:58:24;;;;;;;1.00;0.88;;;;;;;5.33;100.00;91668.44;5085538;28;20060;-80
2022/11/16 02:01:10;;;;;;;2.38;1.08;;;;;;;5.32;100.00;91666.91;5085818;28;20049;-78
2022/11/16 02:03:43;;;;;;;1.30;1.00;;;;;;;5.31;100.00;91665.34;5085459;28;20043;-78
2022/11/16 02:06:26;;;;;;;1.20;0.90;;;;;;;5.31;100.00;91665.34;5051838;28;20276;-80
2022/11/16 02:12:24;;;;;;;3.38;1.60;;;;;;;5.34;100.00;91659.63;5096416;28;20040;-80
2022/11/16 02:15:22;;;;;;;2.22;1.30;;;;;;;5.35;100.00;91655.97;5105282;28;20043;-80
2022/11/16 02:18:25;;;;;;;1.08;0.93;;;;;;;5.39;100.00;91651.78;5069886;28;20043;-80
2022/11/16 02:20:52;;;;;;;1.15;1.00;;;;;;;5.42;100.00;91656.41;5104458;28;20043;-80
2022/11/16 02:23:36;;;;;;;1.20;1.10;;;;;;;5.40;100.00;91653.31;5104708;28;20028;-79
2022/11/16 02:26:17;;;;;;;1.58;1.20;;;;;;;5.39;100.00;91652.56;5106202;28;20054;-79
2022/11/16 02:29:01;;;;;;;2.78;1.40;;;;;;;5.39;100.00;91649.19;5102871;28;20039;-81
2022/11/16 02:31:33;;;;;;;2.22;1.40;;;;;;;5.38;100.00;91650.22;5103907;28;20042;-80
2022/11/16 02:34:00;;;;;;;2.13;1.53;;;;;;;5.37;100.00;91648.69;5104357;28;20039;-81
2022/11/16 02:36:25;;;;;;;2.05;1.40;;;;;;;5.37;100.00;91659.06;5105683;28;20274;-78
2022/11/16 02:39:03;;;;;;;2.75;1.50;;;;;;;5.39;100.00;91651.78;5107478;28;20059;-78
2022/11/16 02:41:32;;;;;;;2.10;1.30;;;;;;;5.37;100.00;91648.69;5125689;28;20035;-79
2022/11/16 02:44:08;;;;;;;3.47;1.50;;;;;;;5.38;100.00;91647.63;5128586;28;20028;-79
2022/11/16 02:46:38;;;;;;;2.03;1.42;;;;;;;5.35;100.00;91648.19;5129281;28;20039;-79
2022/11/16 02:49:11;;;;;;;3.38;1.80;;;;;;;5.33;100.00;91642.50;5110153;28;20055;-80
2022/11/16 02:51:39;;;;;;;5.07;2.00;;;;;;;5.32;100.00;91640.97;5108309;28;20056;-80
2022/11/16 02:54:17;;;;;;;2.20;1.40;;;;;;;5.31;100.00;91634.22;5107542;28;20032;-81
2022/11/16 02:57:16;;;;;;;2.30;1.50;;;;;;;5.31;100.00;91634.97;5092077;28;20503;-81
2022/11/16 02:59:48;;;;;;;2.35;1.48;;;;;;;5.31;100.00;91624.59;5105622;28;20104;-80
2022/11/16 03:02:23;;;;;;;;;;;;;;;5.34;100.00;91615.50;5108401;28;20032;-80
2022/11/16 03:04:55;;;;;;;3.33;1.35;;;;;;;5.33;100.00;91614.72;5107452;28;19920;-78
2022/11/16 03:07:27;;;;;;;1.67;1.20;;;;;;;5.34;100.00;91608.50;5107320;28;20043;-79
2022/11/16 03:09:55;;;;;;;4.25;1.40;;;;;;;5.34;100.00;91607.72;5106159;28;20043;-80
2022/11/16 03:12:27;;;;;;;1.77;1.30;;;;;;;5.33;100.00;91600.97;5090224;28;20020;-80
2022/11/16 03:14:56;;;;;;;1.50;1.10;;;;;;;5.32;100.00;91608.00;5106243;28;20040;-80
2022/11/16 03:17:36;;;;;;;3.53;1.20;;;;;;;5.31;100.00;91597.88;5105845;28;20028;-80
2022/11/16 03:20:11;;;;;;;1.67;1.02;;;;;;;5.31;100.00;91588.25;5096067;28;20036;-80
2022/11/16 03:22:47;;;;;;;133.88;4.32;;;;;;;5.21;100.00;91586.56;5089282;28;20066;-80
2022/11/16 03:25:16;;;;;;;3.22;1.90;;;;;;;5.22;100.00;91574.34;5106847;28;20067;-80
2022/11/16 03:28:00;;;;;;;2.92;1.75;;;;;;;5.26;100.00;91577.94;5108199;28;20047;-80
2022/11/16 03:30:30;;;;;;;2.65;1.50;;;;;;;5.45;100.00;91578.03;5088770;28;20043;-77
2022/11/16 03:33:05;;;;;;;2.13;1.45;;;;;;;5.63;100.00;91574.69;5089523;28;20115;-81
2022/11/16 03:35:43;;;;;;;4.78;1.90;;;;;;;5.50;100.00;91574.59;5106865;28;20040;-80
2022/11/16 03:38:11;;;;;;;2.45;1.58;;;;;;;5.40;100.00;91570.25;5107046;28;20039;-79
2022/11/16 03:40:44;;;;;;;1.75;1.15;;;;;;;5.38;100.00;91572.34;5090736;28;20032;-79
2022/11/16 03:43:10;;;;;;;2.97;1.50;;;;;;;5.35;100.00;91562.53;5088810;28;20032;-80
2022/11/16 03:45:38;;;;;;;3.60;1.50;;;;;;;5.32;100.00;91543.09;5087139;28;20048;-80
2022/11/16 03:48:06;;;;;;;2.22;1.45;;;;;;;5.30;100.00;91539.25;5071627;28;20066;-80
2022/11/16 03:50:31;;;;;;;2.63;1.45;;;;;;;5.30;100.00;91534.81;5099493;28;20024;-80
2022/11/16 03:52:59;;;;;;;12.90;1.80;;;;;;;5.26;100.00;91522.69;5107067;28;20393;-80
2022/11/16 03:55:25;;;;;;;4.88;1.67;;;;;;;5.24;100.00;91514.41;5107052;28;20040;-79
2022/11/16 03:57:51;;;;;;;450.17;9.27;;;;;;;5.22;100.00;91507.69;5107466;28;20050;-79
2022/11/16 04:00:17;;;;;;;138.60;4.95;;;;;;;5.25;100.00;91500.38;5108287;28;20122;-79
2022/11/16 04:02:43;;;;;;;552.15;13.57;;;;;;;5.26;100.00;91512.31;5090028;28;20062;-78
2022/11/16 04:24:41;;;;;;;101.22;3.40;;;;;;;5.09;100.00;91555.03;5106857;28;20036;-79
2022/11/16 04:29:57;;;;;;;320.75;7.45;;;;;;;5.03;100.00;91563.13;5105305;28;20085;-79
2022/11/16 04:37:56;;;;;;;551.70;13.43;;;;;;;5.08;100.00;91586.44;5105183;28;20046;-80
2022/11/16 04:40:29;;;;;;;98.15;4.43;;;;;;;5.05;100.00;91592.94;5105335;28;20093;-80
2022/11/16 04:43:00;;;;;;;59.90;3.47;;;;;;;5.03;100.00;91578.69;5093838;28;20063;-80
2022/11/16 04:48:18;;;;;;;17.38;2.85;;;;;;;4.99;100.00;91576.63;5085417;28;20055;-79
2022/11/16 04:50:45;;;;;;;72.38;4.20;;;;;;;4.98;100.00;91574.34;5086147;28;20044;-79
2022/11/16 04:53:12;;;;;;;13.93;3.05;;;;;;;4.99;100.00;91575.88;5093629;22;20448;-75
2022/11/16 04:55:43;;;;;;;4.05;2.28;;;;;;;5.01;100.00;91573.78;5051237;28;20462;-76
2022/11/16 04:58:09;;;;;;;3.30;1.75;;;;;;;5.02;100.00;91575.31;5034353;28;20068;-76
2022/11/16 05:00:35;;;;;;;2.30;1.50;;;;;;;5.05;100.00;91567.00;5051031;28;20124;-76
2022/11/16 05:03:03;;;;;;;1.80;1.30;;;;;;;5.07;100.00;91558.94;5054507;28;20091;-76
2022/11/16 05:05:29;;;;;;;3.25;1.90;;;;;;;5.08;100.00;91569.03;5059301;28;20087;-76
2022/11/16 05:07:54;;;;;;;3.97;1.98;;;;;;;5.09;100.00;91565.41;5070758;28;20063;-76
2022/11/16 05:10:25;;;;;;;2.10;1.40;;;;;;;5.13;100.00;91566.38;5070692;28;20142;-75
2022/11/16 05:12:51;;;;;;;2.13;1.33;;;;;;;5.15;100.00;91553.16;5070752;28;20378;-76
2022/11/16 05:15:18;;;;;;;2.38;1.25;;;;;;;5.15;100.00;91546.13;5068510;28;20123;-76
2022/11/16 05:17:45;;;;;;;2.38;1.48;;;;;;;5.19;100.00;91539.34;5070717;28;20038;-76
2022/11/16 05:23:02;;;;;;;2.40;1.50;;;;;;;5.21;100.00;91515.72;5069552;28;20036;-76
2022/11/16 05:25:32;;;;;;;1.80;1.20;;;;;;;5.25;100.00;91515.97;5068704;28;20477;-76
2022/11/16 05:27:58;;;;;;;1.70;1.20;;;;;;;5.48;100.00;91514.38;5053909;28;20056;-76
2022/11/16 05:30:24;;;;;;;126.13;4.18;;;;;;;5.54;100.00;91519.25;5070870;28;20045;-75
2022/11/16 05:32:50;;;;;;;69.35;3.20;;;;;;;5.44;100.00;91519.34;5052451;28;20036;-76
2022/11/16 05:35:17;;;;;;;75.45;3.42;;;;;;;5.41;100.00;91509.53;5051434;28;20273;-76
2022/11/16 05:37:43;;;;;;;143.05;4.55;;;;;;;5.32;100.00;91511.19;5051454;28;20037;-75
2022/11/16 05:40:10;;;;;;;4.85;1.92;;;;;;;5.24;100.00;91506.63;5051467;28;20041;-75
2022/11/16 05:42:54;;;;;;;3.15;1.83;;;;;;;5.21;100.00;91487.94;5064985;28;20098;-77
2022/11/16 05:45:20;;;;;;;3.35;2.10;;;;;;;5.15;100.00;91473.47;5052922;28;20040;-77
2022/11/16 05:47:46;;;;;;;3.60;2.15;;;;;;;5.09;100.00;91464.22;5067345;28;20441;-77
2022/11/16 05:50:12;;;;;;;9.07;2.95;;;;;;;5.08;100.00;91454.13;5036173;28;20037;-77
2022/11/16 05:52:40;;;;;;;7.90;3.80;;;;;;;5.10;100.00;91445.00;5056243;28;20390;-78
2022/11/16 05:55:09;;;;;;;6.82;3.40;;;;;;;5.12;100.00;91434.38;5061667;28;20549;-77
2022/11/16 05:57:40;;;;;;;3.90;2.40;;;;;;;5.11;100.00;91433.59;5056327;28;20078;-77
2022/11/16 06:00:07;;;;;;;3.90;2.20;;;;;;;5.09;100.00;91427.91;5040101;28;20085;-78
2022/11/16 06:02:40;;;;;;;75.93;3.83;;;;;;;5.44;100.00;91423.31;5063427;28;20044;-78
2022/11/16 06:05:07;;;;;;;660.90;17.42;;;;;;;5.34;100.00;91420.88;5047043;28;20489;-77
2022/11/16 06:07:33;;;;;;;622.65;14.93;;;;;;;5.37;100.00;91421.06;5039066;28;20051;-77
2022/11/16 06:09:59;;;;;;;555.63;12.98;;;;;;;5.21;100.00;91411.94;5081241;28;20072;-77
2022/11/16 06:12:25;;;;;;;383.63;10.60;;;;;;;5.14;100.00;91412.28;5034065;28;20036;-75
2022/11/16 06:14:50;;;;;;;289.63;7.85;;;;;;;5.12;100.00;91396.22;5066129;28;20085;-77
2022/11/16 06:17:16;;;;;;;7.60;3.13;;;;;;;5.10;100.00;91395.72;5067330;28;20037;-76
2022/11/16 06:19:43;;;;;;;7.28;3.90;;;;;;;5.10;100.00;91382.75;5053182;28;20043;-77
2022/11/16 06:22:08;;;;;;;4.95;3.05;;;;;;;5.12;100.00;91387.66;5068496;28;20062;-77
2022/11/16 06:24:34;;;;;;;4.88;3.00;;;;;;;5.22;100.00;91395.31;5066085;28;20401;-76
2022/11/16 06:27:01;;;;;;;3.88;2.30;;;;;;;5.21;100.00;91399.72;5067728;28;20444;-76
2022/11/16 06:29:26;;;;;;;5.68;2.25;;;;;;;5.19;100.00;91398.47;5067805;28;20032;-76
2022/11/16 06:31:52;;;;;;;3.88;2.17;;;;;;;5.20;100.00;91402.59;5051358;28;20072;-75
2022/11/16 06:34:18;;;;;;;3.20;1.80;;;;;;;5.19;100.00;91404.44;5047848;28;20596;-76
2022/11/16 06:36:43;;;;;;;4.72;1.85;;;;;;;5.19;100.00;91396.66;5065304;28;20028;-76
2022/11/16 06:39:11;;;;;;;2.45;1.58;;;;;;;5.21;100.00;91397.13;5065788;28;20059;-76
2022/11/16 06:41:37;;;;;;;5.00;1.80;;;;;;;5.25;100.00;91406.97;5052399;28;20028;-78
2022/11/16 06:44:03;;;;;;;3.13;1.75;;;;;;;5.25;100.00;91407.75;5051865;28;20040;-76
2022/11/16 06:46:33;;;;;;;2.08;1.40;;;;;;;5.25;100.00;91412.94;5069361;28;20128;-76
2022/11/16 06:48:59;;;;;;;3.95;1.90;;;;;;;5.27;100.00;91415.22;5069384;28;20130;-76
2022/11/16 06:51:25;;;;;;;3.38;1.70;;;;;;;5.29;100.00;91424.31;5066216;28;20110;-80
2022/11/16 06:53:51;;;;;;;3.67;1.70;;;;;;;5.34;100.00;91431.25;5054377;28;20056;-81
2022/11/16 06:56:18;;;;;;;4.22;2.20;;;;;;;5.39;100.00;91444.16;5056446;28;20036;-80
2022/11/16 06:58:51;;;;;;;2.85;1.80;;;;;;;5.36;100.00;91444.72;5058961;28;20036;-80
2022/11/16 07:01:17;;;;;;;3.25;2.03;;;;;;;5.33;100.00;91421.91;5055820;28;20056;-80
2022/11/16 07:03:44;;;;;;;3.72;1.85;;;;;;;5.30;100.00;91415.44;5054024;28;20094;-79
2022/11/16 07:06:12;;;;;;;3.15;1.98;;;;;;;5.30;100.00;91419.88;5049132;28;20904;-79
2022/11/16 07:08:40;;;;;;;3.97;2.10;;;;;;;5.34;100.00;91437.22;5067738;28;20039;-79
2022/11/16 07:11:08;;;;;;;2.03;1.30;;;;;;;5.36;100.00;91455.09;5065172;28;20041;-80
2022/11/16 07:13:36;;;;;;;2.58;1.55;;;;;;;5.39;100.00;91457.13;5056001;28;20101;-80
2022/11/16 07:16:05;;;;;;;1.85;1.27;;;;;;;5.39;100.00;91455.31;5059599;28;20394;-79
2022/11/16 07:18:36;;;;;;;2.28;1.15;;;;;;;5.50;100.00;91450.75;5076070;28;20052;-79
2022/11/16 07:21:13;;;;;;;3.22;1.58;;;;;;;5.47;100.00;91451.31;5077087;28;20043;-79
2022/11/16 07:23:39;;;;;;;1.85;1.10;;;;;;;5.46;100.00;91449.78;5071873;28;20040;-79
2022/11/16 07:26:08;;;;;;;2.22;1.20;;;;;;;5.58;100.00;91457.94;5057025;28;20070;-79
2022/11/16 07:28:48;;;;;;;2.20;1.40;;;;;;;5.68;100.00;91461.44;5059456;28;20036;-79
2022/11/16 07:31:15;;;;;;;2.05;1.30;;;;;;;5.58;100.00;91455.34;5078625;28;20054;-79
2022/11/16 07:33:42;;;;;;;2.17;1.40;;;;;;;5.57;100.00;91446.00;5078985;28;20024;-79
2022/11/16 07:36:27;;;;;;;2.85;1.50;;;;;;;5.61;100.00;91436.59;5079970;28;20110;-79
2022/11/16 07:38:54;;;;;;;2.63;1.60;;;;;;;5.70;100.00;91428.19;5060375;28;20041;-79
2022/11/16 07:41:20;;;;;;;3.17;1.88;;;;;;;5.68;100.00;91425.84;5061820;28;20036;-79
2022/11/16 07:44:01;;;;;;;4.30;2.13;;;;;;;5.82;100.00;91428.50;5042371;28;20585;-79
2022/11/16 07:46:30;;;;;;;3.03;1.60;;;;;;;5.93;100.00;91435.09;5058068;28;20021;-80
2022/11/16 07:48:56;;;;;;;2.42;1.50;;;;;;;5.99;100.00;91435.81;5074475;28;20500;-78
2022/11/16 07:51:47;;;;;;;5.70;1.83;;;;;;;5.90;100.00;91446.06;5077159;28;20492;-78
2022/11/16 07:54:32;;;;;;;3.40;1.90;;;;;;;5.83;100.00;91448.22;5075905;28;20048;-79
2022/11/16 07:56:58;;;;;;;2.70;1.67;;;;;;;5.74;100.00;91447.31;5056865;28;20509;-78
2022/11/16 07:59:24;;;;;;;2.80;1.70;;;;;;;5.76;100.00;91453.00;5050793;28;20494;-80
2022/11/16 08:01:50;;;;;;;2.42;1.45;;;;;;;5.82;100.00;91451.88;5058601;28;20040;-77
2022/11/16 08:04:16;;;;;;;4.20;2.20;;;;;;;5.90;100.00;91450.47;5040540;28;20490;-78
2022/11/16 08:06:43;;;;;;;4.57;2.45;;;;;;;5.98;100.00;91455.81;5058973;28;20044;-78
2022/11/16 08:09:08;;;;;;;8.90;3.15;;;;;;;6.09;100.00;91453.09;5055180;28;20040;-78
2022/11/16 08:11:35;;;;;;;4.95;2.55;;;;;;;6.18;100.00;91459.19;5066217;28;20040;-78
2022/11/16 08:14:01;;;;;;;5.22;2.58;;;;;;;6.23;100.00;91459.09;5036146;28;20029;-78
2022/11/16 08:16:27;;;;;;;6.78;2.33;;;;;;;6.34;100.00;91463.06;5049874;28;20122;-78
2022/11/16 08:19:01;;;;;;;5.72;2.50;;;;;;;6.40;100.00;91464.53;5057061;28;20677;-78
2022/11/16 08:21:27;;;;;;;3.28;1.80;;;;;;;6.37;100.00;91462.53;5072107;28;20062;-78
2022/11/16 08:23:53;;;;;;;3.75;2.00;;;;;;;6.36;100.00;91463.56;5072229;28;20032;-78
2022/11/16 08:26:20;;;;;;;3.65;1.92;;;;;;;6.35;100.00;91463.84;5071393;28;20037;-78
2022/11/16 08:28:54;;;;;;;4.55;2.28;;;;;;;6.30;100.00;91462.09;5071274;28;20035;-76
2022/11/16 08:31:26;;;;;;;3.97;2.17;;;;;;;6.29;100.00;91465.00;5054965;28;20033;-76
2022/11/16 08:33:59;;;;;;;4.05;2.30;;;;;;;6.36;100.00;91465.41;5056002;28;20059;-76
2022/11/16 08:36:25;;;;;;;3.95;2.30;;;;;;;6.43;100.00;91463.97;5071588;28;20044;-76
2022/11/16 08:38:52;;;;;;;5.10;3.00;;;;;;;6.41;100.00;91466.06;5054873;28;20036;-76
2022/11/16 08:41:20;;;;;;;32.08;3.72;;;;;;;6.60;100.00;91454.88;5071214;28;20036;-76
2022/11/16 08:43:46;;;;;;;5.15;2.67;;;;;;;6.57;100.00;91458.78;5054825;28;20041;-76
2022/11/16 08:46:13;;;;;;;4.72;2.83;;;;;;;6.59;100.00;91454.09;5071229;28;20032;-76
2022/11/16 08:48:41;;;;;;;7.15;2.55;;;;;;;6.81;100.00;91444.88;5071228;28;20028;-76
2022/11/16 08:51:11;;;;;;;9.00;3.00;;;;;;;6.86;100.00;91447.38;5054714;28;20044;-76
2022/11/16 08:53:38;;;;;;;9.60;3.00;;;;;;;7.02;100.00;91446.03;5071004;28;20139;-76
2022/11/16 08:56:08;;;;;;;13.77;3.10;;;;;;;7.10;100.00;91436.78;5054572;28;20044;-76
2022/11/16 08:58:35;;;;;;;9.23;3.50;;;;;;;7.25;100.00;91426.09;5071323;28;20035;-76
2022/11/16 09:01:12;;;;;;;4.70;2.67;;;;;;;7.69;100.00;91426.50;5071077;28;20029;-76
2022/11/16 09:03:39;;;;;;;4.68;2.30;;;;;;;7.54;100.00;91422.38;5072206;28;20503;-76
2022/11/16 09:06:06;;;;;;;4.78;2.30;;;;;;;7.50;100.00;91416.22;5070912;28;20471;-76
2022/11/16 09:08:32;;;;;;;3.88;2.35;;;;;;;7.32;100.00;91422.31;5070797;28;20041;-76
2022/11/16 09:10:58;;;;;;;9.68;2.90;;;;;;;7.20;100.00;91426.16;5070922;28;20044;-76
2022/11/16 09:13:24;;;;;;;21.48;3.08;;;;;;;7.10;100.00;91421.19;5054203;28;20170;-76
2022/11/16 09:15:57;;;;;;;45.53;3.95;;;;;;;7.12;100.00;91419.06;5072417;28;20166;-76
2022/11/16 09:18:23;;;;;;;216.15;7.53;;;;;;;7.18;100.00;91412.69;5070616;28;20493;-76
2022/11/16 09:20:49;;;;;;;106.28;5.47;;;;;;;7.34;100.00;91414.97;5071897;28;20029;-76
2022/11/16 09:23:14;;;;;;;5.28;3.53;;;;;;;7.42;100.00;91419.50;5070921;28;20431;-76
2022/11/16 09:25:40;;;;;;;5.53;3.25;;;;;;;7.63;100.00;91418.03;5072141;28;20486;-76
2022/11/16 09:28:07;;;;;;;5.25;2.53;;;;;;;7.97;100.00;91414.16;5070461;28;20020;-76
2022/11/16 09:30:33;;;;;;;5.53;2.63;;;;;;;8.03;100.00;91414.78;5070500;28;20047;-76
2022/11/16 09:32:59;;;;;;;4.30;2.40;;;;;;;8.11;100.00;91414.09;5053881;28;20040;-76
2022/11/16 09:35:24;;;;;;;4.57;2.90;;;;;;;8.09;100.00;91418.84;5070287;28;20040;-76
2022/11/16 09:37:50;;;;;;;4.28;2.53;;;;;;;8.32;100.00;91416.97;5071549;28;20052;-76
2022/11/16 09:40:15;;;;;;;18.70;3.40;;;;;;;8.81;100.00;91422.34;5070459;28;20040;-76
2022/11/16 09:43:38;;;;;;;37.20;3.70;;;;;;;8.43;100.00;91418.31;5070191;28;20513;-76
2022/11/16 09:46:25;;;;;;;6.75;3.30;;;;;;;8.64;100.00;91415.94;5068759;28;20032;-76
2022/11/16 09:48:55;;;;;;;8.23;3.63;;;;;;;9.33;100.00;91414.69;5052113;28;20485;-76
2022/11/16 09:51:22;;;;;;;4.68;2.67;;;;;;;10.17;100.00;91412.75;5069165;28;20047;-76
2022/11/16 09:54:02;;;;;;;6.88;3.30;;;;;;;11.01;100.00;91398.25;5069886;28;20072;-77
2022/11/16 09:56:32;;;;;;;5.22;3.20;;;;;;;11.52;100.00;91400.16;5053402;28;20038;-77
2022/11/16 09:59:00;;;;;;;4.85;3.17;;;;;;;11.66;100.00;91398.06;5070148;28;20028;-77
2022/11/16 10:01:37;;;;;;;5.10;3.17;;;;;;;11.95;100.00;91393.88;5071395;28;20060;-77
2022/11/16 10:04:15;;;;;;;5.55;3.13;;;;;;;12.01;100.00;91390.75;5053368;28;20040;-77
2022/11/16 10:06:48;;;;;;;4.63;2.60;;;;;;;12.44;100.00;91379.09;5069770;28;20098;-77
2022/11/16 10:09:14;;;;;;;5.65;2.50;;;;;;;12.33;100.00;91379.84;5069860;28;20474;-77
2022/11/16 10:11:51;;;;;;;4.88;2.30;;;;;;;11.82;100.00;91380.69;5069902;28;20055;-77
2022/11/16 10:14:56;;;;;;;4.07;2.30;;;;;;;12.61;100.00;91377.38;5069922;28;20074;-77
2022/11/16 10:17:38;;;;;;;3.58;2.30;;;;;;;13.37;98.49;91377.94;5069664;28;20025;-75
2022/11/16 10:20:21;;;;;;;5.22;2.40;;;;;;;13.00;97.51;91380.53;5071170;28;20086;-76
2022/11/16 10:22:59;;;;;;;6.45;2.95;;;;;;;11.91;100.00;91364.94;5071054;28;20044;-76
2022/11/16 10:25:36;;;;;;;24.42;3.90;;;;;;;11.19;100.00;91371.97;5069807;28;20059;-75
2022/11/16 10:28:35;;;;;;;334.00;10.75;;;;;;;10.26;100.00;91368.28;5070793;28;20047;-75
2022/11/16 10:31:15;;;;;;;3.67;2.38;;;;;;;9.73;100.00;91359.72;5064957;28;20028;-76
2022/11/16 10:33:45;;;;;;;7.72;3.30;;;;;;;9.21;100.00;91360.44;5066528;28;20036;-76
2022/11/16 10:36:15;;;;;;;21.92;4.25;;;;;;;9.07;100.00;91357.16;5061210;28;20029;-76
2022/11/16 10:38:43;;;;;;;7.55;4.78;;;;;;;8.86;100.00;91357.72;5050421;28;20069;-76
2022/11/16 10:41:30;;;;;;;19.50;5.28;;;;;;;8.79;100.00;91351.41;5050850;28;20057;-76
2022/11/16 10:43:57;;;;;;;8.85;4.90;;;;;;;8.78;100.00;91350.66;5049535;28;20033;-76
2022/11/16 10:46:30;;;;;;;11.98;3.85;;;;;;;8.79;100.00;91352.19;5049494;28;20346;-76
2022/11/16 10:49:10;;;;;;;4.60;2.75;;;;;;;8.79;100.00;91346.97;5049580;28;20036;-76
2022/11/16 10:51:36;;;;;;;5.22;2.30;;;;;;;8.98;100.00;91344.09;5050714;28;20044;-76
2022/11/16 10:54:10;;;;;;;4.88;2.70;;;;;;;8.95;100.00;91335.03;5032728;28;20052;-76
2022/11/16 10:56:38;;;;;;;4.25;2.50;;;;;;;8.92;100.00;91334.88;5049174;28;20482;-76
2022/11/16 10:59:05;;;;;;;6.25;3.20;;;;;;;8.98;100.00;91336.25;5050797;28;20445;-76
2022/11/16 11:01:36;;;;;;;4.30;2.50;;;;;;;8.87;100.00;91325.34;5032775;28;20033;-76
2022/11/16 11:04:22;;;;;;;5.10;3.20;;;;;;;8.71;100.00;91319.00;5053475;28;20029;-76
2022/11/16 11:06:51;;;;;;;5.60;2.75;;;;;;;8.90;100.00;91322.13;5054353;28;20048;-76
2022/11/16 11:09:35;;;;;;;6.13;3.00;;;;;;;8.82;100.00;91315.03;5053293;28;20375;-76
2022/11/16 11:15:10;;;;;;;5.28;2.90;;;;;;;9.03;100.00;91314.47;5054416;28;20060;-76
2022/11/16 11:17:38;;;;;;;5.72;3.10;;;;;;;9.04;100.00;91308.19;5053069;28;20029;-76
2022/11/16 11:20:20;;;;;;;6.38;3.38;;;;;;;9.06;100.00;91303.44;5054246;28;20033;-77
2022/11/16 11:23:01;;;;;;;5.32;2.90;;;;;;;9.08;100.00;91302.03;5054506;28;20325;-76
2022/11/16 11:25:36;;;;;;;4.20;2.40;;;;;;;9.22;100.00;91301.91;5036427;28;20033;-76
2022/11/16 11:28:06;;;;;;;4.72;2.42;;;;;;;9.32;100.00;91304.22;5052761;28;20044;-76
2022/11/16 11:30:33;;;;;;;4.30;2.40;;;;;;;9.55;100.00;91299.63;5052873;28;20086;-76
2022/11/16 11:32:59;;;;;;;5.93;2.63;;;;;;;9.53;100.00;91295.78;5054687;28;20040;-76
2022/11/16 11:35:31;;;;;;;5.13;2.53;;;;;;;9.34;100.00;91294.25;5052906;28;20041;-76
2022/11/16 11:38:01;;;;;;;6.43;3.50;;;;;;;9.43;100.00;91294.22;5036237;28;20029;-76
2022/11/16 11:40:31;;;;;;;13.05;6.90;;;;;;;9.53;100.00;91290.56;5036010;28;20126;-76
2022/11/16 11:43:02;;;;;;;5.65;3.45;;;;;;;9.64;100.00;91291.78;5036614;28;20036;-76
2022/11/16 11:45:50;;;;;;;4.65;2.70;;;;;;;10.00;100.00;91293.28;5053880;28;20087;-76
2022/11/16 11:48:37;;;;;;;6.65;3.70;;;;;;;10.42;100.00;91277.78;5052891;28;20040;-76
2022/11/16 11:51:26;;;;;;;9.70;5.55;;;;;;;10.74;100.00;91275.63;5053777;28;20045;-76
2022/11/16 11:53:55;;;;;;;5.68;3.20;;;;;;;11.23;100.00;91273.34;5052275;28;20041;-75
2022/11/16 11:56:22;;;;;;;5.25;3.20;;;;;;;11.55;100.00;91263.25;5035732;28;20083;-75
2022/11/16 11:58:48;;;;;;;7.75;4.40;;;;;;;11.85;100.00;91267.28;5052436;28;20044;-75
2022/11/16 12:01:41;;;;;;;4.95;2.90;;;;;;;12.56;100.00;91267.34;5052257;28;20123;-75
2022/11/16 12:04:07;;;;;;;5.65;2.15;;;;;;;13.19;100.00;91261.75;5053522;28;20036;-75
2022/11/16 12:06:45;;;;;;;4.43;2.10;;;;;;;12.84;100.00;91256.97;5053539;28;20119;-75
2022/11/16 12:09:47;;;;;;;5.60;3.03;;;;;;;12.46;100.00;91256.19;5053501;28;20064;-76
2022/11/16 12:12:31;;;;;;;3.65;2.20;;;;;;;12.12;100.00;91259.22;5048464;28;20063;-76
2022/11/16 12:15:32;;;;;;;3.30;1.83;;;;;;;11.96;100.00;91244.09;5051479;28;20131;-75
2022/11/16 12:18:07;;;;;;;4.78;2.10;;;;;;;12.13;100.00;91245.75;5051774;28;20487;-76
2022/11/16 12:20:57;;;;;;;6.72;5.05;;;;;;;11.97;100.00;91239.59;5051890;28;20128;-76
2022/11/16 12:23:35;;;;;;;6.00;3.55;;;;;;;11.87;100.00;91238.13;5053218;28;20045;-75
2022/11/16 12:26:06;;;;;;;5.22;2.75;;;;;;;11.44;100.00;91245.31;5035130;28;20037;-75
2022/11/16 12:28:41;;;;;;;4.75;2.72;;;;;;;10.75;100.00;91251.00;5052965;28;20450;-76